PWSweather.com
Personal Weather Stations
Station Observations
MBORO100
Brandywood , Murfreesboro, TN 37130

Brandywood Murfreesboro, TN 37130

Lat: 35.908093, Lon: -86.31352

Elevation: 690

Station Type: Davis

www.murfreesboroweather.com

High Low Average
Temperature 50.9°F10.5°C 28.8°F-1.8°C 39.5°F4.2°C
Dew Point 34.4°F1.3°C 24.4°F-4.2°C 28.0°F-2.2°C
Winds 5.8 mph 9.3 kmh Calm Calm 2.0 mph W3.2 kmh W
Wind Gusts 10.4 mph16.7 kmh -- 3.0 mph4.8 kmh
Humidity 93% 37% 66%
Pressure 30.21 in1023.0 mb 30.10 in1019.3 mb -
Precipitation 0.00 in0.0 mm - -
Hour Temp Dew Point Humidity Winds Wind Gusts Pressure Precip Precip Rate Daily Precip Total
12:00 AM 34.9°F1.6°C 30.3°F-0.9°C 83% Calm Calm -- 30.21 in1023.0 mb - 0.00 in0.0 mm 0.00 in0.0 mm
12:10 AM 34.7°F1.5°C 30.4°F-0.9°C 84% Calm Calm -- 30.21 in1023.0 mb - 0.00 in0.0 mm 0.00 in0.0 mm
12:15 AM 34.7°F1.5°C 30.4°F-0.9°C 84% Calm Calm -- 30.21 in1023.0 mb - 0.00 in0.0 mm 0.00 in0.0 mm
12:20 AM 34.7°F1.5°C 30.4°F-0.9°C 84% Calm Calm -- 30.21 in1023.0 mb - 0.00 in0.0 mm 0.00 in0.0 mm
12:25 AM 34.6°F1.4°C 30.2°F-1.0°C 84% Calm Calm -- 30.22 in1023.4 mb - 0.00 in0.0 mm 0.00 in0.0 mm
12:30 AM 34.1°F1.2°C 30.0°F-1.1°C 85% Calm Calm -- 30.22 in1023.4 mb - 0.00 in0.0 mm 0.00 in0.0 mm
12:35 AM 34.0°F1.1°C 30.0°F-1.1°C 85% Calm Calm -- 30.21 in1023.0 mb - 0.00 in0.0 mm 0.00 in0.0 mm
12:40 AM 34.1°F1.2°C 30.1°F-1.1°C 85% Calm Calm -- 30.21 in1023.0 mb - 0.00 in0.0 mm 0.00 in0.0 mm
12:45 AM 34.2°F1.2°C 30.2°F-1.0°C 85% Calm Calm -- 30.22 in1023.4 mb - 0.00 in0.0 mm 0.00 in0.0 mm
12:50 AM 34.2°F1.2°C 30.2°F-1.0°C 85% Calm Calm -- 30.21 in1023.0 mb - 0.00 in0.0 mm 0.00 in0.0 mm
12:55 AM 34.1°F1.2°C 30.1°F-1.1°C 85% Calm Calm -- 30.21 in1023.0 mb - 0.00 in0.0 mm 0.00 in0.0 mm
01:00 AM 34.1°F1.2°C 30.4°F-0.9°C 86% Calm Calm -- 30.21 in1023.0 mb - 0.00 in0.0 mm 0.00 in0.0 mm
01:10 AM 34.1°F1.2°C 30.1°F-1.1°C 85% Calm Calm -- 30.21 in1023.0 mb - 0.00 in0.0 mm 0.00 in0.0 mm
01:15 AM 34.1°F1.2°C 30.0°F-1.1°C 85% Calm Calm -- 30.21 in1023.0 mb - 0.00 in0.0 mm 0.00 in0.0 mm
01:20 AM 33.9°F1.1°C 29.9°F-1.2°C 85% Calm Calm -- 30.21 in1023.0 mb - 0.00 in0.0 mm 0.00 in0.0 mm
01:25 AM 33.8°F1.0°C 30.1°F-1.1°C 86% Calm Calm -- 30.21 in1023.0 mb - 0.00 in0.0 mm 0.00 in0.0 mm
01:30 AM 33.7°F0.9°C 30.0°F-1.1°C 86% Calm Calm -- 30.21 in1023.0 mb - 0.00 in0.0 mm 0.00 in0.0 mm
01:35 AM 33.6°F0.9°C 29.9°F-1.2°C 86% Calm Calm -- 30.21 in1023.0 mb - 0.00 in0.0 mm 0.00 in0.0 mm
01:40 AM 33.5°F0.8°C 29.8°F-1.2°C 86% Calm Calm -- 30.21 in1023.0 mb - 0.00 in0.0 mm 0.00 in0.0 mm
01:45 AM 33.4°F0.8°C 29.6°F-1.3°C 86% Calm Calm -- 30.21 in1023.0 mb - 0.00 in0.0 mm 0.00 in0.0 mm
01:50 AM 33.2°F0.7°C 29.5°F-1.4°C 86% Calm Calm -- 30.21 in1023.0 mb - 0.00 in0.0 mm 0.00 in0.0 mm
01:55 AM 33.1°F0.6°C 29.4°F-1.4°C 86% Calm Calm -- 30.21 in1023.0 mb - 0.00 in0.0 mm 0.00 in0.0 mm
02:00 AM 33.0°F0.6°C 29.6°F-1.3°C 87% Calm Calm -- 30.21 in1023.0 mb - 0.00 in0.0 mm 0.00 in0.0 mm
02:10 AM 32.6°F0.3°C 29.2°F-1.6°C 87% Calm Calm -- 30.21 in1023.0 mb - 0.00 in0.0 mm 0.00 in0.0 mm
02:15 AM 32.5°F0.3°C 29.1°F-1.6°C 87% Calm Calm -- 30.20 in1022.7 mb - 0.00 in0.0 mm 0.00 in0.0 mm
02:20 AM 32.3°F0.2°C 29.1°F-1.6°C 88% Calm Calm -- 30.20 in1022.7 mb - 0.00 in0.0 mm 0.00 in0.0 mm
02:25 AM 32.2°F0.1°C 29.1°F-1.6°C 88% Calm Calm -- 30.20 in1022.7 mb - 0.00 in0.0 mm 0.00 in0.0 mm
02:30 AM 32.1°F0.1°C 29.2°F-1.6°C 89% Calm Calm -- 30.20 in1022.7 mb - 0.00 in0.0 mm 0.00 in0.0 mm
02:35 AM 31.9°F-0.1°C 28.8°F-1.8°C 88% Calm Calm -- 30.20 in1022.7 mb - 0.00 in0.0 mm 0.00 in0.0 mm
02:40 AM 31.7°F-0.2°C 28.8°F-1.8°C 89% Calm Calm -- 30.20 in1022.7 mb - 0.00 in0.0 mm 0.00 in0.0 mm
02:45 AM 31.7°F-0.2°C 28.8°F-1.8°C 89% Calm Calm -- 30.20 in1022.7 mb - 0.00 in0.0 mm 0.00 in0.0 mm
02:50 AM 31.7°F-0.2°C 28.8°F-1.8°C 89% Calm Calm -- 30.19 in1022.4 mb - 0.00 in0.0 mm 0.00 in0.0 mm
02:55 AM 31.7°F-0.2°C 29.1°F-1.6°C 90% Calm Calm -- 30.19 in1022.4 mb - 0.00 in0.0 mm 0.00 in0.0 mm
03:00 AM 31.8°F-0.1°C 28.9°F-1.7°C 89% Calm Calm -- 30.19 in1022.4 mb - 0.00 in0.0 mm 0.00 in0.0 mm
03:10 AM 31.7°F-0.2°C 28.8°F-1.8°C 89% Calm Calm -- 30.19 in1022.4 mb - 0.00 in0.0 mm 0.00 in0.0 mm
03:15 AM 31.6°F-0.2°C 28.7°F-1.8°C 89% Calm Calm -- 30.19 in1022.4 mb - 0.00 in0.0 mm 0.00 in0.0 mm
03:20 AM 31.7°F-0.2°C 28.8°F-1.8°C 89% Calm Calm -- 30.19 in1022.4 mb - 0.00 in0.0 mm 0.00 in0.0 mm
03:25 AM 31.7°F-0.2°C 28.8°F-1.8°C 89% Calm Calm -- 30.19 in1022.4 mb - 0.00 in0.0 mm 0.00 in0.0 mm
03:30 AM 31.7°F-0.2°C 28.8°F-1.8°C 89% Calm Calm -- 30.19 in1022.4 mb - 0.00 in0.0 mm 0.00 in0.0 mm
03:35 AM 31.9°F-0.1°C 29.0°F-1.7°C 89% Calm Calm -- 30.18 in1022.0 mb - 0.00 in0.0 mm 0.00 in0.0 mm
03:40 AM 31.9°F-0.1°C 29.1°F-1.6°C 89% Calm Calm -- 30.18 in1022.0 mb - 0.00 in0.0 mm 0.00 in0.0 mm
03:45 AM 31.6°F-0.2°C 28.7°F-1.8°C 89% Calm Calm -- 30.18 in1022.0 mb - 0.00 in0.0 mm 0.00 in0.0 mm
03:50 AM 31.2°F-0.4°C 28.6°F-1.9°C 90% Calm Calm -- 30.18 in1022.0 mb - 0.00 in0.0 mm 0.00 in0.0 mm
03:55 AM 31.1°F-0.5°C 28.5°F-1.9°C 90% Calm Calm -- 30.18 in1022.0 mb - 0.00 in0.0 mm 0.00 in0.0 mm
04:00 AM 31.0°F-0.6°C 28.4°F-2.0°C 90% Calm Calm -- 30.18 in1022.0 mb - 0.00 in0.0 mm 0.00 in0.0 mm
04:10 AM 30.8°F-0.7°C 28.2°F-2.1°C 90% Calm Calm -- 30.18 in1022.0 mb - 0.00 in0.0 mm 0.00 in0.0 mm
04:15 AM 30.7°F-0.7°C 28.1°F-2.2°C 90% Calm Calm -- 30.18 in1022.0 mb - 0.00 in0.0 mm 0.00 in0.0 mm
04:20 AM 30.6°F-0.8°C 28.0°F-2.2°C 90% Calm Calm -- 30.18 in1022.0 mb - 0.00 in0.0 mm 0.00 in0.0 mm
04:25 AM 30.6°F-0.8°C 28.0°F-2.2°C 90% Calm Calm -- 30.18 in1022.0 mb - 0.00 in0.0 mm 0.00 in0.0 mm
04:30 AM 30.8°F-0.7°C 28.2°F-2.1°C 90% Calm Calm -- 30.18 in1022.0 mb - 0.00 in0.0 mm 0.00 in0.0 mm
04:35 AM 30.9°F-0.6°C 28.3°F-2.1°C 90% Calm Calm -- 30.19 in1022.4 mb - 0.00 in0.0 mm 0.00 in0.0 mm
04:40 AM 30.8°F-0.7°C 28.3°F-2.1°C 90% Calm Calm -- 30.19 in1022.4 mb - 0.00 in0.0 mm 0.00 in0.0 mm
04:45 AM 30.8°F-0.7°C 28.2°F-2.1°C 90% Calm Calm -- 30.19 in1022.4 mb - 0.00 in0.0 mm 0.00 in0.0 mm
04:50 AM 30.8°F-0.7°C 28.2°F-2.1°C 90% Calm Calm -- 30.19 in1022.4 mb - 0.00 in0.0 mm 0.00 in0.0 mm
04:55 AM 31.0°F-0.6°C 28.4°F-2.0°C 90% Calm Calm -- 30.19 in1022.4 mb - 0.00 in0.0 mm 0.00 in0.0 mm
05:00 AM 31.3°F-0.4°C 28.4°F-2.0°C 89% Calm Calm -- 30.19 in1022.4 mb - 0.00 in0.0 mm 0.00 in0.0 mm
05:10 AM 31.1°F-0.5°C 28.2°F-2.1°C 89% Calm Calm -- 30.19 in1022.4 mb - 0.00 in0.0 mm 0.00 in0.0 mm
05:15 AM 30.6°F-0.8°C 28.0°F-2.2°C 90% Calm Calm -- 30.18 in1022.0 mb - 0.00 in0.0 mm 0.00 in0.0 mm
05:20 AM 30.3°F-0.9°C 27.7°F-2.4°C 90% Calm Calm -- 30.19 in1022.4 mb - 0.00 in0.0 mm 0.00 in0.0 mm
05:25 AM 29.9°F-1.2°C 27.3°F-2.6°C 90% Calm Calm -- 30.19 in1022.4 mb - 0.00 in0.0 mm 0.00 in0.0 mm
05:30 AM 29.7°F-1.3°C 27.4°F-2.6°C 91% Calm Calm -- 30.19 in1022.4 mb - 0.00 in0.0 mm 0.00 in0.0 mm
05:35 AM 29.6°F-1.3°C 27.3°F-2.6°C 91% Calm Calm -- 30.19 in1022.4 mb - 0.00 in0.0 mm 0.00 in0.0 mm
05:40 AM 29.8°F-1.2°C 27.5°F-2.5°C 91% Calm Calm -- 30.19 in1022.4 mb - 0.00 in0.0 mm 0.00 in0.0 mm
05:45 AM 30.0°F-1.1°C 27.7°F-2.4°C 91% Calm Calm -- 30.19 in1022.4 mb - 0.00 in0.0 mm 0.00 in0.0 mm
05:50 AM 29.7°F-1.3°C 27.4°F-2.6°C 91% Calm Calm -- 30.19 in1022.4 mb - 0.00 in0.0 mm 0.00 in0.0 mm
05:55 AM 29.7°F-1.3°C 27.7°F-2.4°C 92% Calm Calm -- 30.19 in1022.4 mb - 0.00 in0.0 mm 0.00 in0.0 mm
06:00 AM 30.2°F-1.0°C 28.2°F-2.1°C 92% Calm Calm -- 30.19 in1022.4 mb - 0.00 in0.0 mm 0.00 in0.0 mm
06:10 AM 30.1°F-1.1°C 27.8°F-2.3°C 91% Calm Calm -- 30.19 in1022.4 mb - 0.00 in0.0 mm 0.00 in0.0 mm
06:15 AM 29.9°F-1.2°C 27.6°F-2.4°C 91% Calm Calm -- 30.19 in1022.4 mb - 0.00 in0.0 mm 0.00 in0.0 mm
06:20 AM 29.6°F-1.3°C 27.3°F-2.6°C 91% Calm Calm -- 30.19 in1022.4 mb - 0.00 in0.0 mm 0.00 in0.0 mm
06:25 AM 29.3°F-1.5°C 27.0°F-2.8°C 91% Calm Calm -- 30.19 in1022.4 mb - 0.00 in0.0 mm 0.00 in0.0 mm
06:30 AM 29.0°F-1.7°C 26.7°F-2.9°C 91% Calm Calm -- 30.19 in1022.4 mb - 0.00 in0.0 mm 0.00 in0.0 mm
06:35 AM 28.9°F-1.7°C 26.9°F-2.8°C 92% Calm Calm -- 30.19 in1022.4 mb - 0.00 in0.0 mm 0.00 in0.0 mm
06:40 AM 28.8°F-1.8°C 26.8°F-2.9°C 92% Calm Calm -- 30.19 in1022.4 mb - 0.00 in0.0 mm 0.00 in0.0 mm
06:45 AM 28.9°F-1.7°C 26.9°F-2.8°C 92% Calm Calm -- 30.19 in1022.4 mb - 0.00 in0.0 mm 0.00 in0.0 mm
06:50 AM 29.0°F-1.7°C 27.0°F-2.8°C 92% Calm Calm -- 30.19 in1022.4 mb - 0.00 in0.0 mm 0.00 in0.0 mm
06:55 AM 29.0°F-1.7°C 27.0°F-2.8°C 92% Calm Calm -- 30.19 in1022.4 mb - 0.00 in0.0 mm 0.00 in0.0 mm
07:00 AM 29.0°F-1.7°C 27.0°F-2.8°C 92% Calm Calm -- 30.19 in1022.4 mb - 0.00 in0.0 mm 0.00 in0.0 mm
07:10 AM 29.1°F-1.6°C 27.1°F-2.7°C 92% Calm Calm -- 30.19 in1022.4 mb - 0.00 in0.0 mm 0.00 in0.0 mm
07:15 AM 29.2°F-1.6°C 27.1°F-2.7°C 92% Calm Calm -- 30.19 in1022.4 mb - 0.00 in0.0 mm 0.00 in0.0 mm
07:20 AM 29.2°F-1.6°C 27.2°F-2.7°C 92% Calm Calm -- 30.20 in1022.7 mb - 0.00 in0.0 mm 0.00 in0.0 mm
07:25 AM 29.2°F-1.6°C 27.2°F-2.7°C 92% Calm Calm -- 30.20 in1022.7 mb - 0.00 in0.0 mm 0.00 in0.0 mm
07:30 AM 29.3°F-1.5°C 27.3°F-2.6°C 92% Calm Calm -- 30.20 in1022.7 mb - 0.00 in0.0 mm 0.00 in0.0 mm
07:35 AM 29.4°F-1.4°C 27.3°F-2.6°C 92% Calm Calm -- 30.20 in1022.7 mb - 0.00 in0.0 mm 0.00 in0.0 mm
07:40 AM 29.5°F-1.4°C 27.5°F-2.5°C 92% Calm Calm -- 30.20 in1022.7 mb - 0.00 in0.0 mm 0.00 in0.0 mm
07:45 AM 29.7°F-1.3°C 27.7°F-2.4°C 92% Calm Calm -- 30.20 in1022.7 mb - 0.00 in0.0 mm 0.00 in0.0 mm
07:50 AM 29.7°F-1.3°C 27.7°F-2.4°C 92% Calm Calm -- 30.20 in1022.7 mb - 0.00 in0.0 mm 0.00 in0.0 mm
07:55 AM 30.0°F-1.1°C 28.2°F-2.1°C 93% Calm Calm -- 30.20 in1022.7 mb - 0.00 in0.0 mm 0.00 in0.0 mm
08:00 AM 30.3°F-0.9°C 28.5°F-1.9°C 93% Calm Calm -- 30.20 in1022.7 mb - 0.00 in0.0 mm 0.00 in0.0 mm
08:10 AM 30.7°F-0.7°C 28.9°F-1.7°C 93% Calm Calm -- 30.20 in1022.7 mb - 0.00 in0.0 mm 0.00 in0.0 mm
08:15 AM 31.0°F-0.6°C 28.9°F-1.7°C 92% Calm Calm -- 30.21 in1023.0 mb - 0.00 in0.0 mm 0.00 in0.0 mm
08:20 AM 31.2°F-0.4°C 28.9°F-1.7°C 91% Calm Calm -- 30.20 in1022.7 mb - 0.00 in0.0 mm 0.00 in0.0 mm
08:25 AM 31.6°F-0.2°C 29.2°F-1.6°C 91% Calm Calm -- 30.20 in1022.7 mb - 0.00 in0.0 mm 0.00 in0.0 mm
08:30 AM 31.9°F-0.1°C 29.6°F-1.3°C 91% Calm Calm -- 30.20 in1022.7 mb - 0.00 in0.0 mm 0.00 in0.0 mm
08:35 AM 32.4°F0.2°C 29.7°F-1.3°C 90% Calm Calm -- 30.21 in1023.0 mb - 0.00 in0.0 mm 0.00 in0.0 mm
08:40 AM 33.0°F0.6°C 30.4°F-0.9°C 90% Calm Calm -- 30.21 in1023.0 mb - 0.00 in0.0 mm 0.00 in0.0 mm
08:45 AM 33.7°F0.9°C 31.0°F-0.6°C 90% Calm Calm -- 30.21 in1023.0 mb - 0.00 in0.0 mm 0.00 in0.0 mm
08:50 AM 34.5°F1.4°C 31.6°F-0.2°C 89% Calm Calm -- 30.21 in1023.0 mb - 0.00 in0.0 mm 0.00 in0.0 mm
08:55 AM 35.3°F1.8°C 31.8°F-0.1°C 87% Calm Calm -- 30.21 in1023.0 mb - 0.00 in0.0 mm 0.00 in0.0 mm
09:00 AM 35.7°F2.1°C 31.6°F-0.2°C 85% Calm Calm -- 30.21 in1023.0 mb - 0.00 in0.0 mm 0.00 in0.0 mm
09:10 AM 35.9°F2.2°C 31.6°F-0.2°C 84% Calm Calm -- 30.21 in1023.0 mb - 0.00 in0.0 mm 0.00 in0.0 mm
09:15 AM 36.3°F2.4°C 32.3°F0.2°C 85% 1.2 mph NW1.9 kmh NW 2.3 mph3.7 kmh 30.21 in1023.0 mb - 0.00 in0.0 mm 0.00 in0.0 mm
09:20 AM 37.0°F2.8°C 32.3°F0.2°C 83% 2.3 mph WNW3.7 kmh WNW 3.5 mph5.6 kmh 30.21 in1023.0 mb - 0.00 in0.0 mm 0.00 in0.0 mm
09:25 AM 37.3°F2.9°C 32.3°F0.2°C 82% 1.2 mph NW1.9 kmh NW 2.3 mph3.7 kmh 30.21 in1023.0 mb - 0.00 in0.0 mm 0.00 in0.0 mm
09:30 AM 37.7°F3.2°C 32.7°F0.4°C 82% 1.2 mph NW1.9 kmh NW 2.3 mph3.7 kmh 30.21 in1023.0 mb - 0.00 in0.0 mm 0.00 in0.0 mm
09:35 AM 37.7°F3.2°C 32.4°F0.2°C 81% 1.2 mph WSW1.9 kmh WSW 2.3 mph3.7 kmh 30.21 in1023.0 mb - 0.00 in0.0 mm 0.00 in0.0 mm
09:40 AM 37.8°F3.2°C 32.8°F0.4°C 82% 1.2 mph NW1.9 kmh NW 2.3 mph3.7 kmh 30.21 in1023.0 mb - 0.00 in0.0 mm 0.00 in0.0 mm
09:45 AM 38.2°F3.4°C 32.9°F0.5°C 81% 1.2 mph SW1.9 kmh SW 2.3 mph3.7 kmh 30.21 in1023.0 mb - 0.00 in0.0 mm 0.00 in0.0 mm
09:50 AM 38.4°F3.6°C 32.8°F0.4°C 80% 1.2 mph NW1.9 kmh NW 2.3 mph3.7 kmh 30.21 in1023.0 mb - 0.00 in0.0 mm 0.00 in0.0 mm
09:55 AM 38.9°F3.8°C 33.3°F0.7°C 80% 1.2 mph NW1.9 kmh NW 3.5 mph5.6 kmh 30.21 in1023.0 mb - 0.00 in0.0 mm 0.00 in0.0 mm
10:00 AM 39.0°F3.9°C 33.1°F0.6°C 79% 1.2 mph SW1.9 kmh SW 1.2 mph1.9 kmh 30.21 in1023.0 mb - 0.00 in0.0 mm 0.00 in0.0 mm
10:10 AM 39.5°F4.2°C 32.9°F0.5°C 77% 2.3 mph S3.7 kmh S 3.5 mph5.6 kmh 30.20 in1022.7 mb - 0.00 in0.0 mm 0.00 in0.0 mm
10:15 AM 40.4°F4.7°C 33.7°F0.9°C 77% 1.2 mph S1.9 kmh S 3.5 mph5.6 kmh 30.20 in1022.7 mb - 0.00 in0.0 mm 0.00 in0.0 mm
10:20 AM 40.4°F4.7°C 33.1°F0.6°C 75% 1.2 mph NE1.9 kmh NE 2.3 mph3.7 kmh 30.20 in1022.7 mb - 0.00 in0.0 mm 0.00 in0.0 mm
10:25 AM 40.9°F4.9°C 34.3°F1.3°C 77% 2.3 mph NW3.7 kmh NW 3.5 mph5.6 kmh 30.20 in1022.7 mb - 0.00 in0.0 mm 0.00 in0.0 mm
10:30 AM 41.4°F5.2°C 34.4°F1.3°C 76% 2.3 mph W3.7 kmh W 3.5 mph5.6 kmh 30.20 in1022.7 mb - 0.00 in0.0 mm 0.00 in0.0 mm
10:35 AM 41.7°F5.4°C 34.0°F1.1°C 74% 1.2 mph W1.9 kmh W 3.5 mph5.6 kmh 30.20 in1022.7 mb - 0.00 in0.0 mm 0.00 in0.0 mm
10:40 AM 41.6°F5.3°C 33.6°F0.9°C 73% 1.2 mph NW1.9 kmh NW 3.5 mph5.6 kmh 30.20 in1022.7 mb - 0.00 in0.0 mm 0.00 in0.0 mm
10:45 AM 42.1°F5.6°C 33.0°F0.6°C 70% 2.3 mph W3.7 kmh W 3.5 mph5.6 kmh 30.19 in1022.4 mb - 0.00 in0.0 mm 0.00 in0.0 mm
10:50 AM 43.1°F6.2°C 33.3°F0.7°C 68% 2.3 mph NW3.7 kmh NW 3.5 mph5.6 kmh 30.20 in1022.7 mb - 0.00 in0.0 mm 0.00 in0.0 mm
10:55 AM 43.3°F6.3°C 33.4°F0.8°C 68% 3.5 mph NW5.6 kmh NW 4.6 mph7.4 kmh 30.19 in1022.4 mb - 0.00 in0.0 mm 0.00 in0.0 mm
11:00 AM 43.7°F6.5°C 33.1°F0.6°C 66% 3.5 mph WNW5.6 kmh WNW 6.9 mph11.1 kmh 30.19 in1022.4 mb - 0.00 in0.0 mm 0.00 in0.0 mm
11:10 AM 44.1°F6.7°C 33.1°F0.6°C 65% 2.3 mph NW3.7 kmh NW 4.6 mph7.4 kmh 30.19 in1022.4 mb - 0.00 in0.0 mm 0.00 in0.0 mm
11:15 AM 44.2°F6.8°C 32.0°F0.0°C 62% 1.2 mph WNW1.9 kmh WNW 3.5 mph5.6 kmh 30.19 in1022.4 mb - 0.00 in0.0 mm 0.00 in0.0 mm
11:20 AM 44.9°F7.2°C 31.4°F-0.3°C 59% 3.5 mph NNW5.6 kmh NNW 5.8 mph9.3 kmh 30.19 in1022.4 mb - 0.00 in0.0 mm 0.00 in0.0 mm
11:25 AM 44.8°F7.1°C 31.7°F-0.2°C 60% 3.5 mph NW5.6 kmh NW 4.6 mph7.4 kmh 30.19 in1022.4 mb - 0.00 in0.0 mm 0.00 in0.0 mm
11:30 AM 45.0°F7.2°C 30.2°F-1.0°C 56% 3.5 mph WSW5.6 kmh WSW 5.8 mph9.3 kmh 30.19 in1022.4 mb - 0.00 in0.0 mm 0.00 in0.0 mm
11:35 AM 45.1°F7.3°C 29.9°F-1.2°C 55% 3.5 mph W5.6 kmh W 5.8 mph9.3 kmh 30.19 in1022.4 mb - 0.00 in0.0 mm 0.00 in0.0 mm
11:40 AM 44.8°F7.1°C 29.2°F-1.6°C 54% 4.6 mph NW7.4 kmh NW 8.1 mph13.0 kmh 30.19 in1022.4 mb - 0.00 in0.0 mm 0.00 in0.0 mm
11:45 AM 45.2°F7.3°C 30.0°F-1.1°C 55% 3.5 mph W5.6 kmh W 6.9 mph11.1 kmh 30.18 in1022.0 mb - 0.00 in0.0 mm 0.00 in0.0 mm
11:50 AM 45.3°F7.4°C 29.6°F-1.3°C 54% 3.5 mph W5.6 kmh W 8.1 mph13.0 kmh 30.19 in1022.4 mb - 0.00 in0.0 mm 0.00 in0.0 mm
11:55 AM 45.8°F7.7°C 28.2°F-2.1°C 50% 4.6 mph W7.4 kmh W 6.9 mph11.1 kmh 30.18 in1022.0 mb - 0.00 in0.0 mm 0.00 in0.0 mm
12:00 PM 46.4°F8.0°C 29.2°F-1.6°C 51% 4.6 mph WNW7.4 kmh WNW 5.8 mph9.3 kmh 30.18 in1022.0 mb - 0.00 in0.0 mm 0.00 in0.0 mm
12:10 PM 47.7°F8.7°C 28.9°F-1.7°C 48% 3.5 mph WNW5.6 kmh WNW 4.6 mph7.4 kmh 30.18 in1022.0 mb - 0.00 in0.0 mm 0.00 in0.0 mm
12:15 PM 47.0°F8.3°C 27.8°F-2.3°C 47% 4.6 mph WNW7.4 kmh WNW 3.5 mph5.6 kmh 30.18 in1022.0 mb - 0.00 in0.0 mm 0.00 in0.0 mm
12:20 PM 47.0°F8.3°C 27.8°F-2.3°C 47% 2.3 mph WNW3.7 kmh WNW 4.6 mph7.4 kmh 30.18 in1022.0 mb - 0.00 in0.0 mm 0.00 in0.0 mm
12:25 PM 47.6°F8.7°C 27.9°F-2.3°C 46% 3.5 mph NW5.6 kmh NW 5.8 mph9.3 kmh 30.18 in1022.0 mb - 0.00 in0.0 mm 0.00 in0.0 mm
12:30 PM 47.7°F8.7°C 27.9°F-2.3°C 46% 3.5 mph NW5.6 kmh NW 6.9 mph11.1 kmh 30.18 in1022.0 mb - 0.00 in0.0 mm 0.00 in0.0 mm
12:35 PM 47.8°F8.8°C 27.4°F-2.6°C 45% 3.5 mph NW5.6 kmh NW 5.8 mph9.3 kmh 30.18 in1022.0 mb - 0.00 in0.0 mm 0.00 in0.0 mm
12:40 PM 48.4°F9.1°C 28.5°F-1.9°C 46% 3.5 mph NW5.6 kmh NW 6.9 mph11.1 kmh 30.18 in1022.0 mb - 0.00 in0.0 mm 0.00 in0.0 mm
12:45 PM 48.4°F9.1°C 28.0°F-2.2°C 45% 3.5 mph WNW5.6 kmh WNW 5.8 mph9.3 kmh 30.18 in1022.0 mb - 0.00 in0.0 mm 0.00 in0.0 mm
12:50 PM 48.3°F9.1°C 27.9°F-2.3°C 45% 4.6 mph WNW7.4 kmh WNW 6.9 mph11.1 kmh 30.17 in1021.7 mb - 0.00 in0.0 mm 0.00 in0.0 mm
12:55 PM 47.9°F8.8°C 26.4°F-3.1°C 43% 3.5 mph NW5.6 kmh NW 6.9 mph11.1 kmh 30.17 in1021.7 mb - 0.00 in0.0 mm 0.00 in0.0 mm
01:00 PM 47.9°F8.8°C 24.7°F-4.1°C 40% 3.5 mph NW5.6 kmh NW 3.5 mph5.6 kmh 30.17 in1021.7 mb - 0.00 in0.0 mm 0.00 in0.0 mm
01:10 PM 48.7°F9.3°C 27.7°F-2.4°C 44% 4.6 mph W7.4 kmh W 6.9 mph11.1 kmh 30.16 in1021.3 mb - 0.00 in0.0 mm 0.00 in0.0 mm
01:15 PM 48.5°F9.2°C 28.1°F-2.2°C 45% 3.5 mph WNW5.6 kmh WNW 5.8 mph9.3 kmh 30.16 in1021.3 mb - 0.00 in0.0 mm 0.00 in0.0 mm
01:20 PM 48.7°F9.3°C 27.8°F-2.3°C 44% 3.5 mph NW5.6 kmh NW 6.9 mph11.1 kmh 30.15 in1021.0 mb - 0.00 in0.0 mm 0.00 in0.0 mm
01:25 PM 48.1°F8.9°C 26.6°F-3.0°C 43% 2.3 mph NNE3.7 kmh NNE 3.5 mph5.6 kmh 30.15 in1021.0 mb - 0.00 in0.0 mm 0.00 in0.0 mm
01:30 PM 48.9°F9.4°C 27.4°F-2.6°C 43% 3.5 mph NW5.6 kmh NW 8.1 mph13.0 kmh 30.15 in1021.0 mb - 0.00 in0.0 mm 0.00 in0.0 mm
01:35 PM 49.0°F9.4°C 28.6°F-1.9°C 45% 4.6 mph NW7.4 kmh NW 8.1 mph13.0 kmh 30.15 in1021.0 mb - 0.00 in0.0 mm 0.00 in0.0 mm
01:40 PM 49.1°F9.5°C 29.2°F-1.6°C 46% 3.5 mph WNW5.6 kmh WNW 8.1 mph13.0 kmh 30.14 in1020.7 mb - 0.00 in0.0 mm 0.00 in0.0 mm
01:45 PM 48.8°F9.3°C 28.4°F-2.0°C 45% 3.5 mph NNW5.6 kmh NNW 4.6 mph7.4 kmh 30.14 in1020.7 mb - 0.00 in0.0 mm 0.00 in0.0 mm
01:50 PM 48.8°F9.3°C 27.3°F-2.6°C 43% 2.3 mph NW3.7 kmh NW 4.6 mph7.4 kmh 30.14 in1020.7 mb - 0.00 in0.0 mm 0.00 in0.0 mm
01:55 PM 49.3°F9.6°C 29.4°F-1.4°C 46% 3.5 mph NNW5.6 kmh NNW 5.8 mph9.3 kmh 30.14 in1020.7 mb - 0.00 in0.0 mm 0.00 in0.0 mm
02:00 PM 49.7°F9.8°C 29.7°F-1.3°C 46% 4.6 mph NW7.4 kmh NW 8.1 mph13.0 kmh 30.14 in1020.7 mb - 0.00 in0.0 mm 0.00 in0.0 mm
02:10 PM 49.4°F9.7°C 29.0°F-1.7°C 45% 2.3 mph NNW3.7 kmh NNW 2.3 mph3.7 kmh 30.13 in1020.3 mb - 0.00 in0.0 mm 0.00 in0.0 mm
02:15 PM 49.4°F9.7°C 28.9°F-1.7°C 45% 4.6 mph NW7.4 kmh NW 6.9 mph11.1 kmh 30.12 in1020.0 mb - 0.00 in0.0 mm 0.00 in0.0 mm
02:20 PM 49.7°F9.8°C 29.7°F-1.3°C 46% 4.6 mph WNW7.4 kmh WNW 8.1 mph13.0 kmh 30.12 in1020.0 mb - 0.00 in0.0 mm 0.00 in0.0 mm
02:25 PM 49.0°F9.4°C 28.0°F-2.2°C 44% 3.5 mph NW5.6 kmh NW 4.6 mph7.4 kmh 30.12 in1020.0 mb - 0.00 in0.0 mm 0.00 in0.0 mm
02:30 PM 49.5°F9.7°C 28.5°F-1.9°C 44% 3.5 mph WNW5.6 kmh WNW 5.8 mph9.3 kmh 30.12 in1020.0 mb - 0.00 in0.0 mm 0.00 in0.0 mm
02:35 PM 50.0°F10.0°C 29.4°F-1.4°C 45% 3.5 mph NW5.6 kmh NW 5.8 mph9.3 kmh 30.12 in1020.0 mb - 0.00 in0.0 mm 0.00 in0.0 mm
02:40 PM 50.3°F10.2°C 28.1°F-2.2°C 42% 4.6 mph NW7.4 kmh NW 8.1 mph13.0 kmh 30.12 in1020.0 mb - 0.00 in0.0 mm 0.00 in0.0 mm
02:45 PM 50.5°F10.3°C 29.4°F-1.4°C 44% 2.3 mph NW3.7 kmh NW 4.6 mph7.4 kmh 30.12 in1020.0 mb - 0.00 in0.0 mm 0.00 in0.0 mm
02:50 PM 50.2°F10.1°C 29.1°F-1.6°C 44% 3.5 mph NW5.6 kmh NW 4.6 mph7.4 kmh 30.12 in1020.0 mb - 0.00 in0.0 mm 0.00 in0.0 mm
02:55 PM 50.0°F10.0°C 28.3°F-2.1°C 43% 2.3 mph NW3.7 kmh NW 3.5 mph5.6 kmh 30.11 in1019.6 mb - 0.00 in0.0 mm 0.00 in0.0 mm
03:00 PM 50.2°F10.1°C 26.8°F-2.9°C 40% 4.6 mph WNW7.4 kmh WNW 6.9 mph11.1 kmh 30.11 in1019.6 mb - 0.00 in0.0 mm 0.00 in0.0 mm
03:10 PM 50.1°F10.1°C 27.8°F-2.3°C 42% 4.6 mph NW7.4 kmh NW 4.6 mph7.4 kmh 30.11 in1019.6 mb - 0.00 in0.0 mm 0.00 in0.0 mm
03:15 PM 50.0°F10.0°C 27.8°F-2.3°C 42% 4.6 mph NNW7.4 kmh NNW 8.1 mph13.0 kmh 30.11 in1019.6 mb - 0.00 in0.0 mm 0.00 in0.0 mm
03:20 PM 50.4°F10.2°C 28.7°F-1.8°C 43% 4.6 mph WNW7.4 kmh WNW 6.9 mph11.1 kmh 30.11 in1019.6 mb - 0.00 in0.0 mm 0.00 in0.0 mm
03:25 PM 50.1°F10.1°C 28.5°F-1.9°C 43% 4.6 mph WNW7.4 kmh WNW 5.8 mph9.3 kmh 30.11 in1019.6 mb - 0.00 in0.0 mm 0.00 in0.0 mm
03:30 PM 50.3°F10.2°C 29.2°F-1.6°C 44% 3.5 mph WNW5.6 kmh WNW 4.6 mph7.4 kmh 30.10 in1019.3 mb - 0.00 in0.0 mm 0.00 in0.0 mm
03:35 PM 50.4°F10.2°C 28.1°F-2.2°C 42% 3.5 mph NW5.6 kmh NW 8.1 mph13.0 kmh 30.10 in1019.3 mb - 0.00 in0.0 mm 0.00 in0.0 mm
03:40 PM 50.9°F10.5°C 27.4°F-2.6°C 40% 4.6 mph NNW7.4 kmh NNW 10.4 mph16.7 kmh 30.10 in1019.3 mb - 0.00 in0.0 mm 0.00 in0.0 mm
03:45 PM 50.6°F10.3°C 26.5°F-3.1°C 39% 3.5 mph N5.6 kmh N 3.5 mph5.6 kmh 30.10 in1019.3 mb - 0.00 in0.0 mm 0.00 in0.0 mm
03:50 PM 50.5°F10.3°C 27.1°F-2.7°C 40% 4.6 mph NW7.4 kmh NW 8.1 mph13.0 kmh 30.10 in1019.3 mb - 0.00 in0.0 mm 0.00 in0.0 mm
03:55 PM 50.5°F10.3°C 26.4°F-3.1°C 39% 3.5 mph NW5.6 kmh NW 4.6 mph7.4 kmh 30.10 in1019.3 mb - 0.00 in0.0 mm 0.00 in0.0 mm
04:00 PM 50.4°F10.2°C 27.6°F-2.4°C 41% 4.6 mph NW7.4 kmh NW 10.4 mph16.7 kmh 30.10 in1019.3 mb - 0.00 in0.0 mm 0.00 in0.0 mm
04:10 PM 50.8°F10.4°C 26.7°F-2.9°C 39% 4.6 mph NW7.4 kmh NW 8.1 mph13.0 kmh 30.10 in1019.3 mb - 0.00 in0.0 mm 0.00 in0.0 mm
04:15 PM 50.6°F10.3°C 25.3°F-3.7°C 37% 5.8 mph WNW9.3 kmh WNW 9.2 mph14.8 kmh 30.10 in1019.3 mb - 0.00 in0.0 mm 0.00 in0.0 mm
04:20 PM 50.4°F10.2°C 27.0°F-2.8°C 40% 4.6 mph WNW7.4 kmh WNW 8.1 mph13.0 kmh 30.10 in1019.3 mb - 0.00 in0.0 mm 0.00 in0.0 mm
04:25 PM 50.0°F10.0°C 26.6°F-3.0°C 40% 3.5 mph NW5.6 kmh NW 5.8 mph9.3 kmh 30.10 in1019.3 mb - 0.00 in0.0 mm 0.00 in0.0 mm
04:30 PM 50.2°F10.1°C 26.8°F-2.9°C 40% 4.6 mph NW7.4 kmh NW 4.6 mph7.4 kmh 30.10 in1019.3 mb - 0.00 in0.0 mm 0.00 in0.0 mm
04:35 PM 50.2°F10.1°C 27.3°F-2.6°C 41% 4.6 mph NW7.4 kmh NW 9.2 mph14.8 kmh 30.10 in1019.3 mb - 0.00 in0.0 mm 0.00 in0.0 mm
04:40 PM 49.7°F9.8°C 25.7°F-3.5°C 39% 3.5 mph NNW5.6 kmh NNW 4.6 mph7.4 kmh 30.10 in1019.3 mb - 0.00 in0.0 mm 0.00 in0.0 mm
04:45 PM 49.2°F9.6°C 26.5°F-3.1°C 41% 4.6 mph NW7.4 kmh NW 8.1 mph13.0 kmh 30.10 in1019.3 mb - 0.00 in0.0 mm 0.00 in0.0 mm
04:50 PM 49.2°F9.6°C 27.1°F-2.7°C 42% 4.6 mph NW7.4 kmh NW 6.9 mph11.1 kmh 30.10 in1019.3 mb - 0.00 in0.0 mm 0.00 in0.0 mm
04:55 PM 49.2°F9.6°C 27.0°F-2.8°C 42% 3.5 mph NNW5.6 kmh NNW 4.6 mph7.4 kmh 30.10 in1019.3 mb - 0.00 in0.0 mm 0.00 in0.0 mm
05:00 PM 48.8°F9.3°C 26.1°F-3.3°C 41% 3.5 mph NW5.6 kmh NW 4.6 mph7.4 kmh 30.10 in1019.3 mb - 0.00 in0.0 mm 0.00 in0.0 mm
05:10 PM 48.6°F9.2°C 26.6°F-3.0°C 42% 3.5 mph NNW5.6 kmh NNW 4.6 mph7.4 kmh 30.10 in1019.3 mb - 0.00 in0.0 mm 0.00 in0.0 mm
05:15 PM 48.3°F9.1°C 25.6°F-3.6°C 41% 3.5 mph NW5.6 kmh NW 8.1 mph13.0 kmh 30.10 in1019.3 mb - 0.00 in0.0 mm 0.00 in0.0 mm
05:20 PM 48.2°F9.0°C 26.7°F-2.9°C 43% 4.6 mph NNW7.4 kmh NNW 8.1 mph13.0 kmh 30.10 in1019.3 mb - 0.00 in0.0 mm 0.00 in0.0 mm
05:25 PM 48.2°F9.0°C 26.2°F-3.2°C 42% 3.5 mph NW5.6 kmh NW 8.1 mph13.0 kmh 30.10 in1019.3 mb - 0.00 in0.0 mm 0.00 in0.0 mm
05:30 PM 48.3°F9.1°C 26.2°F-3.2°C 42% 4.6 mph NW7.4 kmh NW 8.1 mph13.0 kmh 30.10 in1019.3 mb - 0.00 in0.0 mm 0.00 in0.0 mm
05:35 PM 48.0°F8.9°C 26.6°F-3.0°C 43% 3.5 mph NNW5.6 kmh NNW 4.6 mph7.4 kmh 30.10 in1019.3 mb - 0.00 in0.0 mm 0.00 in0.0 mm
05:40 PM 47.5°F8.6°C 26.1°F-3.3°C 43% 3.5 mph NNW5.6 kmh NNW 3.5 mph5.6 kmh 30.10 in1019.3 mb - 0.00 in0.0 mm 0.00 in0.0 mm
05:45 PM 47.1°F8.4°C 26.9°F-2.8°C 45% 3.5 mph NNW5.6 kmh NNW 4.6 mph7.4 kmh 30.10 in1019.3 mb - 0.00 in0.0 mm 0.00 in0.0 mm
05:50 PM 47.0°F8.3°C 26.7°F-2.9°C 45% 3.5 mph NNW5.6 kmh NNW 4.6 mph7.4 kmh 30.10 in1019.3 mb - 0.00 in0.0 mm 0.00 in0.0 mm
05:55 PM 46.9°F8.3°C 26.7°F-2.9°C 45% 3.5 mph NNW5.6 kmh NNW 5.8 mph9.3 kmh 30.11 in1019.6 mb - 0.00 in0.0 mm 0.00 in0.0 mm
06:00 PM 46.8°F8.2°C 26.6°F-3.0°C 45% 4.6 mph NW7.4 kmh NW 4.6 mph7.4 kmh 30.11 in1019.6 mb - 0.00 in0.0 mm 0.00 in0.0 mm
06:10 PM 46.2°F7.9°C 27.5°F-2.5°C 48% 2.3 mph NNW3.7 kmh NNW 5.8 mph9.3 kmh 30.11 in1019.6 mb - 0.00 in0.0 mm 0.00 in0.0 mm
06:15 PM 45.8°F7.7°C 26.7°F-2.9°C 47% 3.5 mph N5.6 kmh N 3.5 mph5.6 kmh 30.11 in1019.6 mb - 0.00 in0.0 mm 0.00 in0.0 mm
06:20 PM 45.4°F7.4°C 27.9°F-2.3°C 50% 2.3 mph N3.7 kmh N 4.6 mph7.4 kmh 30.11 in1019.6 mb - 0.00 in0.0 mm 0.00 in0.0 mm
06:25 PM 45.1°F7.3°C 27.1°F-2.7°C 49% 3.5 mph NNW5.6 kmh NNW 4.6 mph7.4 kmh 30.11 in1019.6 mb - 0.00 in0.0 mm 0.00 in0.0 mm
06:30 PM 44.9°F7.2°C 26.9°F-2.8°C 49% 2.3 mph N3.7 kmh N 3.5 mph5.6 kmh 30.11 in1019.6 mb - 0.00 in0.0 mm 0.00 in0.0 mm
06:35 PM 44.6°F7.0°C 27.1°F-2.7°C 50% 2.3 mph NNW3.7 kmh NNW 3.5 mph5.6 kmh 30.11 in1019.6 mb - 0.00 in0.0 mm 0.00 in0.0 mm
06:40 PM 44.4°F6.9°C 26.4°F-3.1°C 49% 3.5 mph NNW5.6 kmh NNW 3.5 mph5.6 kmh 30.12 in1020.0 mb - 0.00 in0.0 mm 0.00 in0.0 mm
06:45 PM 44.2°F6.8°C 26.2°F-3.2°C 49% 2.3 mph NNW3.7 kmh NNW 3.5 mph5.6 kmh 30.12 in1020.0 mb - 0.00 in0.0 mm 0.00 in0.0 mm
06:50 PM 44.0°F6.7°C 26.0°F-3.3°C 49% 3.5 mph NNW5.6 kmh NNW 4.6 mph7.4 kmh 30.12 in1020.0 mb - 0.00 in0.0 mm 0.00 in0.0 mm
06:55 PM 43.7°F6.5°C 26.3°F-3.2°C 50% 2.3 mph N3.7 kmh N 3.5 mph5.6 kmh 30.12 in1020.0 mb - 0.00 in0.0 mm 0.00 in0.0 mm
07:00 PM 43.3°F6.3°C 26.4°F-3.1°C 51% 2.3 mph NNW3.7 kmh NNW 3.5 mph5.6 kmh 30.12 in1020.0 mb - 0.00 in0.0 mm 0.00 in0.0 mm
07:10 PM 42.8°F6.0°C 26.4°F-3.1°C 52% 3.5 mph N5.6 kmh N 3.5 mph5.6 kmh 30.13 in1020.3 mb - 0.00 in0.0 mm 0.00 in0.0 mm
07:15 PM 42.6°F5.9°C 26.2°F-3.2°C 52% 2.3 mph N3.7 kmh N 3.5 mph5.6 kmh 30.13 in1020.3 mb - 0.00 in0.0 mm 0.00 in0.0 mm
07:20 PM 42.4°F5.8°C 26.0°F-3.3°C 52% 2.3 mph NW3.7 kmh NW 3.5 mph5.6 kmh 30.13 in1020.3 mb - 0.00 in0.0 mm 0.00 in0.0 mm
07:25 PM 42.4°F5.8°C 25.5°F-3.6°C 51% 2.3 mph N3.7 kmh N 3.5 mph5.6 kmh 30.13 in1020.3 mb - 0.00 in0.0 mm 0.00 in0.0 mm
07:30 PM 42.1°F5.6°C 25.8°F-3.4°C 52% 1.2 mph N1.9 kmh N 2.3 mph3.7 kmh 30.14 in1020.7 mb - 0.00 in0.0 mm 0.00 in0.0 mm
07:35 PM 41.9°F5.5°C 25.1°F-3.8°C 51% 2.3 mph NNW3.7 kmh NNW 3.5 mph5.6 kmh 30.14 in1020.7 mb - 0.00 in0.0 mm 0.00 in0.0 mm
07:40 PM 41.8°F5.4°C 25.4°F-3.7°C 52% 1.2 mph NNW1.9 kmh NNW 2.3 mph3.7 kmh 30.14 in1020.7 mb - 0.00 in0.0 mm 0.00 in0.0 mm
07:45 PM 41.5°F5.3°C 25.2°F-3.8°C 52% 1.2 mph NW1.9 kmh NW 3.5 mph5.6 kmh 30.14 in1020.7 mb - 0.00 in0.0 mm 0.00 in0.0 mm
07:50 PM 41.2°F5.1°C 25.8°F-3.4°C 54% 1.2 mph NW1.9 kmh NW 2.3 mph3.7 kmh 30.14 in1020.7 mb - 0.00 in0.0 mm 0.00 in0.0 mm
07:55 PM 40.9°F4.9°C 25.1°F-3.8°C 53% 1.2 mph NW1.9 kmh NW 3.5 mph5.6 kmh 30.14 in1020.7 mb - 0.00 in0.0 mm 0.00 in0.0 mm
08:00 PM 40.7°F4.8°C 24.9°F-3.9°C 53% 1.2 mph NW1.9 kmh NW 2.3 mph3.7 kmh 30.14 in1020.7 mb - 0.00 in0.0 mm 0.00 in0.0 mm
08:10 PM 40.4°F4.7°C 25.1°F-3.8°C 54% 2.3 mph NNE3.7 kmh NNE 3.5 mph5.6 kmh 30.15 in1021.0 mb - 0.00 in0.0 mm 0.00 in0.0 mm
08:15 PM 40.4°F4.7°C 25.0°F-3.9°C 54% 1.2 mph NW1.9 kmh NW 2.3 mph3.7 kmh 30.15 in1021.0 mb - 0.00 in0.0 mm 0.00 in0.0 mm
08:20 PM 40.0°F4.4°C 25.1°F-3.8°C 55% 1.2 mph N1.9 kmh N 3.5 mph5.6 kmh 30.15 in1021.0 mb - 0.00 in0.0 mm 0.00 in0.0 mm
08:25 PM 39.9°F4.4°C 25.0°F-3.9°C 55% 1.2 mph NNE1.9 kmh NNE 1.2 mph1.9 kmh 30.15 in1021.0 mb - 0.00 in0.0 mm 0.00 in0.0 mm
08:30 PM 39.7°F4.3°C 25.2°F-3.8°C 56% 1.2 mph NNE1.9 kmh NNE 1.2 mph1.9 kmh 30.15 in1021.0 mb - 0.00 in0.0 mm 0.00 in0.0 mm
08:35 PM 39.5°F4.2°C 25.1°F-3.8°C 56% Calm Calm -- 30.15 in1021.0 mb - 0.00 in0.0 mm 0.00 in0.0 mm
08:40 PM 39.5°F4.2°C 24.7°F-4.1°C 55% Calm Calm -- 30.15 in1021.0 mb - 0.00 in0.0 mm 0.00 in0.0 mm
08:45 PM 39.3°F4.1°C 24.5°F-4.2°C 55% Calm Calm -- 30.15 in1021.0 mb - 0.00 in0.0 mm 0.00 in0.0 mm
08:50 PM 39.2°F4.0°C 24.4°F-4.2°C 55% Calm Calm -- 30.16 in1021.3 mb - 0.00 in0.0 mm 0.00 in0.0 mm
08:55 PM 39.1°F3.9°C 24.7°F-4.1°C 56% Calm Calm -- 30.16 in1021.3 mb - 0.00 in0.0 mm 0.00 in0.0 mm
09:00 PM 39.2°F4.0°C 24.8°F-4.0°C 56% Calm Calm -- 30.16 in1021.3 mb - 0.00 in0.0 mm 0.00 in0.0 mm
09:10 PM 39.4°F4.1°C 24.6°F-4.1°C 55% Calm Calm -- 30.16 in1021.3 mb - 0.00 in0.0 mm 0.00 in0.0 mm
09:15 PM 39.5°F4.2°C 24.7°F-4.1°C 55% Calm Calm -- 30.16 in1021.3 mb - 0.00 in0.0 mm 0.00 in0.0 mm
09:20 PM 39.4°F4.1°C 27.0°F-2.8°C 61% Calm Calm -- 30.16 in1021.3 mb - 0.00 in0.0 mm 0.00 in0.0 mm
09:25 PM 39.1°F3.9°C 26.0°F-3.3°C 59% Calm Calm -- 30.16 in1021.3 mb - 0.00 in0.0 mm 0.00 in0.0 mm
09:30 PM 38.9°F3.8°C 25.4°F-3.7°C 58% Calm Calm -- 30.16 in1021.3 mb - 0.00 in0.0 mm 0.00 in0.0 mm
09:35 PM 38.9°F3.8°C 25.4°F-3.7°C 58% Calm Calm -- 30.16 in1021.3 mb - 0.00 in0.0 mm 0.00 in0.0 mm
09:40 PM 38.8°F3.8°C 26.1°F-3.3°C 60% Calm Calm -- 30.16 in1021.3 mb - 0.00 in0.0 mm 0.00 in0.0 mm
09:45 PM 38.7°F3.7°C 26.4°F-3.1°C 61% Calm Calm -- 30.16 in1021.3 mb - 0.00 in0.0 mm 0.00 in0.0 mm
09:50 PM 38.7°F3.7°C 25.6°F-3.6°C 59% Calm Calm -- 30.16 in1021.3 mb - 0.00 in0.0 mm 0.00 in0.0 mm
09:55 PM 38.6°F3.7°C 25.9°F-3.4°C 60% Calm Calm -- 30.16 in1021.3 mb - 0.00 in0.0 mm 0.00 in0.0 mm
10:00 PM 38.5°F3.6°C 26.2°F-3.2°C 61% Calm Calm -- 30.16 in1021.3 mb - 0.00 in0.0 mm 0.00 in0.0 mm
10:10 PM 38.3°F3.5°C 26.8°F-2.9°C 63% Calm Calm -- 30.16 in1021.3 mb - 0.00 in0.0 mm 0.00 in0.0 mm
10:15 PM 38.2°F3.4°C 26.7°F-2.9°C 63% Calm Calm -- 30.16 in1021.3 mb - 0.00 in0.0 mm 0.00 in0.0 mm
10:20 PM 38.2°F3.4°C 26.3°F-3.2°C 62% Calm Calm -- 30.15 in1021.0 mb - 0.00 in0.0 mm 0.00 in0.0 mm
10:25 PM 38.2°F3.4°C 26.7°F-2.9°C 63% Calm Calm -- 30.16 in1021.3 mb - 0.00 in0.0 mm 0.00 in0.0 mm
10:30 PM 38.3°F3.5°C 26.4°F-3.1°C 62% Calm Calm -- 30.16 in1021.3 mb - 0.00 in0.0 mm 0.00 in0.0 mm
10:35 PM 38.3°F3.5°C 26.4°F-3.1°C 62% Calm Calm -- 30.15 in1021.0 mb - 0.00 in0.0 mm 0.00 in0.0 mm
10:40 PM 38.4°F3.6°C 26.5°F-3.1°C 62% Calm Calm -- 30.15 in1021.0 mb - 0.00 in0.0 mm 0.00 in0.0 mm
10:45 PM 38.5°F3.6°C 26.2°F-3.2°C 61% Calm Calm -- 30.15 in1021.0 mb - 0.00 in0.0 mm 0.00 in0.0 mm
10:50 PM 38.7°F3.7°C 26.4°F-3.1°C 61% Calm Calm -- 30.15 in1021.0 mb - 0.00 in0.0 mm 0.00 in0.0 mm
10:55 PM 38.8°F3.8°C 26.1°F-3.3°C 60% Calm Calm -- 30.15 in1021.0 mb - 0.00 in0.0 mm 0.00 in0.0 mm
11:00 PM 38.7°F3.7°C 26.4°F-3.1°C 61% Calm Calm -- 30.15 in1021.0 mb - 0.00 in0.0 mm 0.00 in0.0 mm
11:10 PM 38.4°F3.6°C 26.5°F-3.1°C 62% Calm Calm -- 30.15 in1021.0 mb - 0.00 in0.0 mm 0.00 in0.0 mm
11:15 PM 38.2°F3.4°C 26.3°F-3.2°C 62% Calm Calm -- 30.16 in1021.3 mb - 0.00 in0.0 mm 0.00 in0.0 mm
11:20 PM 38.2°F3.4°C 26.7°F-2.9°C 63% Calm Calm -- 30.16 in1021.3 mb - 0.00 in0.0 mm 0.00 in0.0 mm
11:25 PM 38.3°F3.5°C 26.4°F-3.1°C 62% Calm Calm -- 30.16 in1021.3 mb - 0.00 in0.0 mm 0.00 in0.0 mm
11:30 PM 38.4°F3.6°C 26.5°F-3.1°C 62% Calm Calm -- 30.16 in1021.3 mb - 0.00 in0.0 mm 0.00 in0.0 mm
11:35 PM 38.4°F3.6°C 26.9°F-2.8°C 63% 1.2 mph WNW1.9 kmh WNW 2.3 mph3.7 kmh 30.15 in1021.0 mb - 0.00 in0.0 mm 0.00 in0.0 mm
11:40 PM 38.6°F3.7°C 26.3°F-3.2°C 61% 2.3 mph WNW3.7 kmh WNW 3.5 mph5.6 kmh 30.16 in1021.3 mb - 0.00 in0.0 mm 0.00 in0.0 mm
11:45 PM 38.8°F3.8°C 26.9°F-2.8°C 62% 1.2 mph NW1.9 kmh NW 2.3 mph3.7 kmh 30.16 in1021.3 mb - 0.00 in0.0 mm 0.00 in0.0 mm
11:50 PM 38.7°F3.7°C 27.2°F-2.7°C 63% 2.3 mph NW3.7 kmh NW 3.5 mph5.6 kmh 30.16 in1021.3 mb - 0.00 in0.0 mm 0.00 in0.0 mm
11:55 PM 38.8°F3.8°C 26.5°F-3.1°C 61% 2.3 mph NW3.7 kmh NW 4.6 mph7.4 kmh 30.16 in1021.3 mb - 0.00 in0.0 mm 0.00 in0.0 mm